Time;durP1;ratioP1;P1;durP2;ratioP2;P2;SDS_P1;SDS_P2;PMS_P1;PMS_P2;Temp;Humidity;BMP_temperature;BMP_pressure;BME280_temperature;BME280_humidity;BME280_pressure;Samples;Min_cycle;Max_cycle;Signal;HPM_P1;HPM_P2
2020/12/29 00:00:52;;;;;;;1.02;0.50;;;4.60;92.50;;;;;;5094609;28;20089;-73
2020/12/29 00:03:19;;;;;;;0.82;0.60;;;4.60;92.40;;;;;;5076085;28;20094;-74
2020/12/29 00:05:45;;;;;;;0.47;0.40;;;4.60;92.50;;;;;;5094178;28;20052;-74
2020/12/29 00:08:12;;;;;;;0.65;0.50;;;4.60;92.50;;;;;;5093930;28;20048;-75
2020/12/29 00:10:38;;;;;;;0.55;0.50;;;4.60;92.50;;;;;;5074598;28;20475;-75
2020/12/29 00:13:04;;;;;;;0.70;0.60;;;4.60;92.50;;;;;;5094087;28;20123;-73
2020/12/29 00:15:30;;;;;;;0.60;0.45;;;4.60;92.50;;;;;;5093899;28;20139;-74
2020/12/29 00:17:55;;;;;;;0.50;0.50;;;4.60;92.50;;;;;;5093815;28;20044;-74
2020/12/29 00:20:21;;;;;;;0.32;0.30;;;4.60;92.50;;;;;;5093985;28;20032;-75
2020/12/29 00:22:47;;;;;;;1.38;0.65;;;4.60;92.50;;;;;;5094386;28;20108;-75
2020/12/29 00:25:16;;;;;;;0.35;0.35;;;4.60;92.50;;;;;;5093840;28;20419;-74
2020/12/29 00:27:42;;;;;;;0.45;0.40;;;4.60;92.50;;;;;;5093408;28;20043;-74
2020/12/29 00:30:08;;;;;;;0.30;0.30;;;4.50;92.50;;;;;;5076073;28;20370;-75
2020/12/29 00:32:34;;;;;;;0.40;0.30;;;4.60;92.60;;;;;;5093805;28;20044;-74
2020/12/29 00:35:00;;;;;;;1.45;0.50;;;4.60;92.60;;;;;;5093548;28;20032;-74
2020/12/29 00:37:25;;;;;;;0.40;0.40;;;4.60;92.60;;;;;;5093695;28;20035;-74
2020/12/29 00:39:51;;;;;;;0.70;0.50;;;4.50;92.60;;;;;;5073265;28;20041;-75
2020/12/29 00:42:17;;;;;;;0.70;0.50;;;4.50;92.60;;;;;;5058907;28;20097;-75
2020/12/29 00:44:42;;;;;;;0.47;0.40;;;4.50;92.60;;;;;;5075717;28;20040;-74
2020/12/29 00:47:08;;;;;;;0.47;0.47;;;4.60;92.60;;;;;;5094076;28;20082;-74
2020/12/29 00:49:37;;;;;;;0.47;0.40;;;4.60;92.60;;;;;;5075953;28;20375;-75
2020/12/29 00:52:03;;;;;;;0.57;0.40;;;4.50;92.70;;;;;;5093469;28;20058;-75
2020/12/29 00:54:29;;;;;;;0.63;0.30;;;4.50;92.60;;;;;;5093348;28;20040;-74
2020/12/29 00:56:55;;;;;;;0.85;0.63;;;4.50;92.60;;;;;;5074084;28;20376;-74
2020/12/29 00:59:21;;;;;;;0.50;0.40;;;4.50;92.60;;;;;;5093531;28;20115;-74
2020/12/29 01:01:54;;;;;;;0.45;0.40;;;4.50;92.60;;;;;;5093266;28;20043;-75
2020/12/29 01:04:20;;;;;;;0.40;0.40;;;4.60;92.70;;;;;;5058681;28;20406;-75
2020/12/29 01:06:46;;;;;;;0.30;0.30;;;4.60;92.60;;;;;;5074907;28;20036;-74
2020/12/29 01:09:12;;;;;;;0.40;0.20;;;4.60;92.60;;;;;;5093115;28;20043;-74
2020/12/29 01:11:37;;;;;;;0.30;0.30;;;4.60;92.60;;;;;;5092967;28;20501;-74
2020/12/29 01:14:03;;;;;;;0.70;0.47;;;4.60;92.60;;;;;;5093471;28;20383;-76
2020/12/29 01:16:29;;;;;;;0.65;0.35;;;4.60;92.60;;;;;;5093154;28;20044;-78
2020/12/29 01:18:54;;;;;;;0.20;0.20;;;4.60;92.60;;;;;;5058309;28;20113;-75
2020/12/29 01:21:20;;;;;;;0.35;0.35;;;4.60;92.60;;;;;;5093025;28;20082;-74
2020/12/29 01:23:46;;;;;;;0.93;0.45;;;4.60;92.60;;;;;;5092900;28;20035;-74
2020/12/29 01:26:19;;;;;;;0.30;0.28;;;4.60;92.60;;;;;;5093320;28;20040;-75
2020/12/29 01:28:45;;;;;;;0.30;0.20;;;4.60;92.60;;;;;;5092866;28;20040;-75
2020/12/29 01:31:11;;;;;;;0.50;0.40;;;4.50;92.60;;;;;;5092606;28;20040;-75
2020/12/29 01:33:36;;;;;;;1.00;0.50;;;4.60;92.60;;;;;;5092695;28;20500;-74
2020/12/29 01:36:02;;;;;;;0.60;0.47;;;4.60;92.60;;;;;;5092756;28;20086;-74
2020/12/29 01:38:28;;;;;;;0.85;0.47;;;4.50;92.60;;;;;;5073934;28;20123;-74
2020/12/29 01:40:59;;;;;;;0.47;0.30;;;4.60;92.60;;;;;;5092178;28;20036;-74
2020/12/29 01:43:28;;;;;;;0.30;0.20;;;4.60;92.60;;;;;;5093073;28;20434;-74
2020/12/29 01:45:55;;;;;;;0.43;0.30;;;4.60;92.60;;;;;;5092604;28;20036;-76
2020/12/29 01:48:20;;;;;;;0.20;0.20;;;4.60;92.60;;;;;;5075178;28;20044;-74
2020/12/29 01:50:46;;;;;;;0.35;0.35;;;4.70;92.60;;;;;;5093264;28;20190;-75
2020/12/29 01:53:12;;;;;;;0.50;0.40;;;4.60;92.60;;;;;;5092646;28;20040;-76
2020/12/29 01:55:37;;;;;;;0.40;0.40;;;4.60;92.60;;;;;;5093048;28;20363;-75
2020/12/29 01:58:03;;;;;;;0.70;0.57;;;4.60;92.60;;;;;;5075032;28;20125;-75
2020/12/29 02:00:29;;;;;;;0.30;0.30;;;4.50;92.60;;;;;;5074407;28;20044;-74
2020/12/29 02:02:57;;;;;;;0.50;0.50;;;4.50;92.60;;;;;;5092302;28;20059;-75
2020/12/29 02:05:24;;;;;;;0.30;0.30;;;4.50;92.60;;;;;;5073309;28;20487;-75
2020/12/29 02:07:52;;;;;;;1.35;0.63;;;4.50;92.60;;;;;;5072966;28;20383;-74
2020/12/29 02:10:18;;;;;;;0.57;0.45;;;4.60;92.60;;;;;;5092363;28;20098;-75
2020/12/29 02:12:43;;;;;;;0.63;0.38;;;4.50;92.60;;;;;;5092257;28;20028;-75
2020/12/29 02:15:09;;;;;;;0.63;0.50;;;4.50;92.70;;;;;;5092044;28;20180;-75
2020/12/29 02:17:36;;;;;;;0.60;0.50;;;4.50;92.60;;;;;;5074085;28;20036;-75
2020/12/29 02:20:04;;;;;;;0.70;0.52;;;4.50;92.60;;;;;;5074256;28;20052;-76
2020/12/29 02:22:29;;;;;;;0.30;0.30;;;4.50;92.60;;;;;;5092269;28;20434;-75
2020/12/29 02:24:58;;;;;;;0.55;0.40;;;4.50;92.60;;;;;;5092270;28;20043;-75
2020/12/29 02:27:28;;;;;;;1.05;0.50;;;4.50;92.60;;;;;;5073620;28;20135;-74
2020/12/29 02:29:58;;;;;;;0.50;0.50;;;4.50;92.60;;;;;;5092351;28;20115;-75
2020/12/29 02:32:25;;;;;;;0.52;0.52;;;4.50;92.60;;;;;;5092270;28;20119;-77
2020/12/29 02:34:52;;;;;;;1.27;0.68;;;4.40;92.60;;;;;;5073605;28;20497;-75
2020/12/29 02:37:19;;;;;;;1.13;0.60;;;4.60;92.60;;;;;;5057005;28;20486;-75
2020/12/29 02:39:50;;;;;;;0.73;0.60;;;4.50;92.60;;;;;;5092053;28;20040;-75
2020/12/29 02:42:15;;;;;;;0.85;0.50;;;4.50;92.60;;;;;;5073518;28;20048;-75
2020/12/29 02:44:41;;;;;;;0.47;0.45;;;4.40;92.60;;;;;;5091654;28;20032;-76
2020/12/29 02:47:07;;;;;;;0.52;0.38;;;4.50;92.60;;;;;;5091659;28;20028;-75
2020/12/29 02:49:33;;;;;;;0.68;0.50;;;4.50;92.60;;;;;;5092096;28;20128;-74
2020/12/29 02:52:00;;;;;;;0.60;0.50;;;4.50;92.60;;;;;;5076574;28;20108;-74
2020/12/29 02:54:26;;;;;;;0.80;0.55;;;4.40;92.60;;;;;;5095680;28;20056;-74
2020/12/29 02:56:54;;;;;;;1.42;0.73;;;4.50;92.60;;;;;;5075542;28;20474;-74
2020/12/29 02:59:21;;;;;;;0.68;0.63;;;4.40;92.60;;;;;;5095686;28;20398;-74
2020/12/29 03:01:47;;;;;;;1.00;0.70;;;4.50;92.60;;;;;;5095575;28;20397;-74
2020/12/29 03:04:13;;;;;;;1.52;0.73;;;4.50;92.60;;;;;;5095568;28;20085;-74
2020/12/29 03:06:39;;;;;;;0.85;0.60;;;4.40;92.60;;;;;;5095073;28;20048;-74
2020/12/29 03:09:05;;;;;;;0.70;0.70;;;4.40;92.60;;;;;;5095439;28;20040;-74
2020/12/29 03:11:31;;;;;;;0.63;0.63;;;4.40;92.60;;;;;;5094705;28;20496;-74
2020/12/29 03:14:00;;;;;;;1.20;0.90;;;4.40;92.50;;;;;;5094883;28;20478;-73
2020/12/29 03:16:27;;;;;;;1.23;0.80;;;4.40;92.50;;;;;;5076571;28;20044;-73
2020/12/29 03:18:53;;;;;;;0.73;0.70;;;4.50;92.60;;;;;;5077630;28;20425;-73
2020/12/29 03:21:19;;;;;;;1.25;0.60;;;4.40;92.50;;;;;;5097379;28;20032;-73
2020/12/29 03:23:46;;;;;;;1.42;0.80;;;4.30;92.50;;;;;;5078179;28;20045;-73
2020/12/29 03:26:11;;;;;;;0.80;0.60;;;4.40;92.50;;;;;;5097668;28;20044;-74
2020/12/29 03:28:37;;;;;;;0.70;0.70;;;4.40;92.50;;;;;;5097688;28;20042;-73
2020/12/29 03:31:05;;;;;;;0.80;0.70;;;4.40;92.50;;;;;;5097581;28;20040;-74
2020/12/29 03:33:30;;;;;;;0.95;0.80;;;4.30;92.50;;;;;;5096772;28;20044;-73
2020/12/29 03:35:56;;;;;;;0.85;0.65;;;4.40;92.60;;;;;;5097592;28;20051;-74
2020/12/29 03:38:22;;;;;;;1.02;0.70;;;4.40;92.60;;;;;;5097113;28;20397;-74
2020/12/29 03:40:49;;;;;;;0.50;0.50;;;4.30;92.50;;;;;;5061291;28;20105;-74
2020/12/29 03:43:15;;;;;;;0.88;0.63;;;4.30;92.50;;;;;;5077125;28;20111;-74
2020/12/29 03:45:43;;;;;;;0.98;0.68;;;4.30;92.60;;;;;;5097590;28;20409;-73
2020/12/29 03:48:12;;;;;;;0.88;0.70;;;4.30;92.60;;;;;;5098822;28;20032;-73
2020/12/29 03:50:38;;;;;;;0.80;0.60;;;4.30;92.60;;;;;;5096759;28;20040;-72
2020/12/29 03:53:05;;;;;;;1.45;0.90;;;4.30;92.60;;;;;;5096961;28;20048;-74
2020/12/29 03:55:32;;;;;;;0.70;0.60;;;4.20;92.60;;;;;;5097096;28;20482;-74
2020/12/29 03:57:57;;;;;;;1.05;0.82;;;4.30;92.60;;;;;;5078907;28;20078;-74
2020/12/29 04:00:24;;;;;;;1.42;0.90;;;4.20;92.50;;;;;;5078730;28;20132;-74
2020/12/29 04:02:50;;;;;;;1.13;0.70;;;4.20;92.60;;;;;;5095191;28;20071;-74
2020/12/29 04:05:16;;;;;;;0.63;0.55;;;4.20;92.50;;;;;;5096288;28;20040;-74
2020/12/29 04:07:43;;;;;;;1.05;0.85;;;4.20;92.60;;;;;;5078094;28;20119;-74
2020/12/29 04:10:08;;;;;;;0.60;0.60;;;4.30;92.60;;;;;;5095872;28;20109;-74
2020/12/29 04:12:34;;;;;;;0.85;0.80;;;4.20;92.60;;;;;;5095448;28;20036;-74
2020/12/29 04:15:00;;;;;;;1.25;0.90;;;4.30;92.60;;;;;;5095432;28;20402;-73
2020/12/29 04:17:26;;;;;;;1.42;0.80;;;4.30;92.60;;;;;;5095305;28;20036;-73
2020/12/29 04:19:51;;;;;;;1.10;0.77;;;4.20;92.50;;;;;;5076883;28;20040;-74
2020/12/29 04:22:17;;;;;;;1.15;0.70;;;4.30;92.90;;;;;;5095004;28;20044;-74
2020/12/29 04:24:43;;;;;;;0.60;0.50;;;4.30;92.60;;;;;;5094822;28;20032;-74
2020/12/29 04:27:09;;;;;;;1.30;0.80;;;4.30;92.60;;;;;;5094890;28;20047;-74
2020/12/29 04:29:35;;;;;;;1.30;0.90;;;4.30;92.60;;;;;;5094877;28;20046;-73
2020/12/29 04:32:00;;;;;;;1.23;0.93;;;4.20;92.60;;;;;;5094840;28;20067;-74
2020/12/29 04:34:26;;;;;;;1.42;0.90;;;4.20;92.60;;;;;;5094726;28;20054;-74
2020/12/29 04:36:55;;;;;;;0.90;0.65;;;4.20;92.60;;;;;;5094870;28;20047;-74
2020/12/29 04:39:21;;;;;;;0.60;0.50;;;4.20;92.60;;;;;;5094657;28;20044;-74
2020/12/29 04:41:52;;;;;;;0.95;0.70;;;4.20;92.60;;;;;;5095164;28;20545;-74
2020/12/29 04:44:19;;;;;;;1.00;0.70;;;4.10;92.60;;;;;;5074994;28;20123;-73
2020/12/29 04:46:45;;;;;;;1.42;0.80;;;4.10;92.60;;;;;;5095298;28;20036;-74
2020/12/29 04:49:12;;;;;;;1.13;0.90;;;4.20;92.60;;;;;;5077187;28;20048;-74
2020/12/29 04:51:39;;;;;;;2.10;0.60;;;4.20;92.60;;;;;;5094832;28;20127;-74
2020/12/29 04:54:07;;;;;;;1.05;0.82;;;4.20;92.60;;;;;;5075652;28;20037;-74
2020/12/29 04:56:33;;;;;;;0.93;0.77;;;4.20;92.70;;;;;;5094947;28;20521;-74
2020/12/29 04:59:01;;;;;;;1.83;0.90;;;4.20;92.70;;;;;;5094838;28;20088;-74
2020/12/29 05:01:31;;;;;;;1.25;0.90;;;4.10;92.70;;;;;;5077301;28;20079;-74
2020/12/29 05:03:57;;;;;;;1.55;0.90;;;4.20;92.70;;;;;;5095241;28;20040;-74
2020/12/29 05:06:23;;;;;;;1.23;0.98;;;4.10;92.60;;;;;;5095646;28;20047;-74
2020/12/29 05:08:50;;;;;;;1.02;0.90;;;4.10;92.70;;;;;;5076356;28;20111;-74
2020/12/29 05:11:17;;;;;;;1.55;0.98;;;4.20;92.70;;;;;;5096223;28;20032;-74
2020/12/29 05:13:45;;;;;;;1.67;1.10;;;4.10;92.60;;;;;;5096131;28;20039;-73
2020/12/29 05:16:12;;;;;;;1.20;0.90;;;4.10;92.60;;;;;;5096031;28;20048;-74
2020/12/29 05:18:38;;;;;;;2.00;1.02;;;4.10;92.60;;;;;;5095539;28;20040;-73
2020/12/29 05:21:04;;;;;;;2.13;1.20;;;4.10;92.60;;;;;;5096164;28;20040;-74
2020/12/29 05:23:30;;;;;;;2.25;1.33;;;4.10;92.60;;;;;;5076525;28;20100;-73
2020/12/29 05:25:56;;;;;;;1.60;1.00;;;4.10;92.60;;;;;;5095385;28;20436;-73
2020/12/29 05:28:25;;;;;;;1.77;1.10;;;4.10;92.70;;;;;;5095800;28;20032;-74
2020/12/29 05:30:54;;;;;;;1.95;1.20;;;4.00;92.60;;;;;;5094835;28;20043;-73
2020/12/29 05:33:20;;;;;;;1.75;1.10;;;4.10;92.70;;;;;;5094490;28;20036;-74
2020/12/29 05:35:45;;;;;;;1.92;1.20;;;4.10;92.70;;;;;;5094602;28;20048;-73
2020/12/29 05:38:12;;;;;;;1.45;0.90;;;4.10;92.70;;;;;;5094801;28;20075;-74
2020/12/29 05:40:37;;;;;;;1.67;1.10;;;4.10;92.70;;;;;;5095103;28;20032;-73
2020/12/29 05:43:04;;;;;;;1.50;0.90;;;4.10;92.70;;;;;;5094052;28;20102;-73
2020/12/29 05:45:31;;;;;;;1.63;1.05;;;4.10;92.70;;;;;;5094184;28;20098;-73
2020/12/29 05:47:59;;;;;;;1.60;1.02;;;4.10;92.70;;;;;;5094546;28;20478;-74
2020/12/29 05:50:27;;;;;;;1.42;0.80;;;4.10;92.70;;;;;;5094207;28;20063;-73
2020/12/29 05:52:55;;;;;;;1.42;0.98;;;4.20;92.70;;;;;;5094707;28;20040;-74
2020/12/29 05:55:21;;;;;;;1.48;0.82;;;4.20;92.70;;;;;;5094407;28;20071;-74
2020/12/29 05:58:08;;;;;;;1.67;0.90;;;4.20;92.70;;;;;;5094963;28;20040;-73
2020/12/29 06:00:35;;;;;;;2.00;1.30;;;4.10;92.70;;;;;;5095104;28;20047;-74
2020/12/29 06:03:02;;;;;;;1.67;1.10;;;4.10;92.70;;;;;;5094886;28;20044;-73
2020/12/29 06:05:30;;;;;;;1.58;1.10;;;4.20;92.70;;;;;;5094764;28;20130;-73
2020/12/29 06:07:58;;;;;;;1.55;0.95;;;4.20;92.70;;;;;;5094993;28;20044;-74
2020/12/29 06:10:25;;;;;;;1.73;1.05;;;4.20;92.70;;;;;;5094754;28;20047;-73
2020/12/29 06:12:56;;;;;;;2.00;1.10;;;4.20;92.70;;;;;;5093955;28;20036;-74
2020/12/29 06:15:24;;;;;;;2.70;1.13;;;4.20;92.70;;;;;;5095221;28;20036;-73
2020/12/29 06:17:58;;;;;;;1.90;1.17;;;4.20;92.70;;;;;;5094870;28;20406;-73
2020/12/29 06:20:32;;;;;;;2.85;1.40;;;4.20;92.90;;;;;;5095254;28;20044;-73
2020/12/29 06:23:02;;;;;;;2.30;1.40;;;4.20;92.70;;;;;;5095627;28;20044;-73
2020/12/29 06:25:32;;;;;;;2.78;1.23;;;4.20;92.70;;;;;;5094503;28;20043;-74
2020/12/29 06:28:02;;;;;;;2.25;1.27;;;4.20;92.70;;;;;;5094838;28;20070;-73
2020/12/29 06:30:29;;;;;;;3.88;1.90;;;4.20;92.70;;;;;;5094653;28;20046;-74
2020/12/29 06:32:55;;;;;;;3.38;1.60;;;4.20;92.70;;;;;;5094810;28;20070;-74
2020/12/29 06:35:22;;;;;;;3.08;1.70;;;4.20;92.70;;;;;;5077078;28;21380;-73
2020/12/29 06:38:15;;;;;;;2.70;1.70;;;4.20;92.70;;;;;;5094669;28;20052;-73
2020/12/29 06:40:42;;;;;;;2.47;1.38;;;4.20;92.70;;;;;;5094213;28;20048;-74
2020/12/29 06:43:09;;;;;;;3.45;1.80;;;4.30;93.00;;;;;;5076423;28;20059;-73
2020/12/29 06:45:37;;;;;;;2.92;1.73;;;4.20;92.70;;;;;;5075942;28;20044;-74
2020/12/29 06:48:16;;;;;;;3.05;1.63;;;4.20;92.70;;;;;;5094152;28;20102;-73
2020/12/29 06:50:42;;;;;;;4.45;2.30;;;4.20;92.70;;;;;;5094165;28;20093;-74
2020/12/29 06:53:08;;;;;;;3.28;1.67;;;4.30;92.70;;;;;;5075006;28;20504;-73
2020/12/29 06:55:50;;;;;;;4.50;2.28;;;4.20;92.70;;;;;;5074971;28;20040;-73
2020/12/29 06:58:32;;;;;;;3.83;2.03;;;4.20;92.70;;;;;;5093018;28;20044;-74
2020/12/29 07:01:20;;;;;;;4.10;2.08;;;4.20;92.70;;;;;;5093221;28;20044;-74
2020/12/29 07:03:47;;;;;;;3.28;1.75;;;4.30;92.70;;;;;;5075153;28;20040;-74
2020/12/29 07:06:13;;;;;;;3.58;1.75;;;4.20;92.70;;;;;;5092561;28;20040;-74
2020/12/29 07:08:39;;;;;;;4.10;2.00;;;4.20;92.70;;;;;;5092642;28;20406;-74
2020/12/29 07:11:19;;;;;;;3.15;1.70;;;4.30;92.70;;;;;;5092227;28;20131;-74
2020/12/29 07:13:50;;;;;;;4.18;1.90;;;4.30;92.80;;;;;;5074334;28;20405;-73
2020/12/29 07:16:22;;;;;;;3.05;1.75;;;4.30;92.70;;;;;;5074103;28;20040;-73
2020/12/29 07:18:48;;;;;;;2.92;1.60;;;4.30;92.70;;;;;;5073719;28;20044;-74
2020/12/29 07:21:25;;;;;;;2.42;1.63;;;4.20;92.70;;;;;;5091949;28;20047;-74
2020/12/29 07:23:52;;;;;;;3.08;1.55;;;4.30;92.80;;;;;;5092098;28;20043;-74
2020/12/29 07:26:20;;;;;;;3.42;1.80;;;4.30;92.80;;;;;;5091861;28;20540;-73
2020/12/29 07:28:49;;;;;;;3.08;1.58;;;4.30;92.80;;;;;;5074100;28;20043;-73
2020/12/29 07:31:15;;;;;;;4.30;2.10;;;4.30;92.80;;;;;;5091781;28;20044;-74
2020/12/29 07:33:50;;;;;;;4.63;2.30;;;4.20;92.80;;;;;;5092127;28;20071;-74
2020/12/29 07:36:18;;;;;;;3.63;2.10;;;4.20;92.80;;;;;;5074000;28;20036;-74
2020/12/29 07:38:48;;;;;;;4.55;2.08;;;4.20;92.80;;;;;;5094131;28;20113;-73
2020/12/29 07:41:15;;;;;;;2.80;1.73;;;4.10;92.80;;;;;;5094766;28;20048;-74
2020/12/29 07:43:41;;;;;;;2.97;1.67;;;4.10;92.80;;;;;;5095517;28;20110;-73
2020/12/29 07:46:08;;;;;;;3.08;1.75;;;4.10;92.90;;;;;;5094886;28;20032;-73
2020/12/29 07:48:34;;;;;;;4.30;2.05;;;4.10;92.90;;;;;;5095102;28;20036;-73
2020/12/29 07:51:01;;;;;;;3.35;1.80;;;4.10;92.90;;;;;;5094728;28;20036;-73
2020/12/29 07:53:27;;;;;;;4.18;1.83;;;4.20;92.90;;;;;;5094673;28;20043;-73
2020/12/29 07:55:53;;;;;;;3.47;1.67;;;4.00;92.90;;;;;;5095224;28;20044;-74
2020/12/29 07:58:19;;;;;;;3.35;1.70;;;4.10;92.90;;;;;;5094767;28;20115;-74
2020/12/29 08:00:45;;;;;;;3.72;1.70;;;4.10;92.90;;;;;;5095302;28;20905;-74
2020/12/29 08:03:12;;;;;;;3.92;1.77;;;4.10;92.90;;;;;;5095107;28;20047;-74
2020/12/29 08:05:38;;;;;;;3.85;1.77;;;4.10;92.90;;;;;;5094813;28;20505;-74
2020/12/29 08:08:06;;;;;;;3.50;2.00;;;4.20;92.90;;;;;;5094773;28;20040;-74
2020/12/29 08:10:33;;;;;;;4.53;2.50;;;4.10;92.90;;;;;;5094691;28;20044;-74
2020/12/29 08:13:02;;;;;;;4.88;2.40;;;4.00;92.90;;;;;;5076335;28;20052;-74
2020/12/29 08:15:30;;;;;;;5.85;2.63;;;4.10;92.90;;;;;;5094264;28;20051;-74
2020/12/29 08:18:05;;;;;;;5.90;2.92;;;4.00;92.90;;;;;;5094617;28;20044;-74
2020/12/29 08:20:32;;;;;;;6.28;3.00;;;4.00;92.90;;;;;;5094275;28;20106;-74
2020/12/29 08:23:03;;;;;;;5.75;2.55;;;4.00;92.90;;;;;;5093947;28;20119;-74
2020/12/29 08:25:30;;;;;;;5.13;2.70;;;4.00;92.90;;;;;;5075329;28;20444;-74
2020/12/29 08:27:58;;;;;;;5.18;2.65;;;3.90;92.90;;;;;;5094082;28;20120;-74
2020/12/29 08:30:25;;;;;;;5.68;2.58;;;4.00;92.90;;;;;;5076003;28;20040;-74
2020/12/29 08:32:53;;;;;;;4.85;2.45;;;3.90;92.90;;;;;;5076021;28;20497;-74
2020/12/29 08:35:20;;;;;;;7.38;3.28;;;3.90;92.90;;;;;;5094057;28;20233;-74
2020/12/29 08:38:01;;;;;;;5.95;2.90;;;3.90;92.90;;;;;;5094526;28;20077;-74
2020/12/29 08:40:30;;;;;;;6.75;2.70;;;3.90;92.90;;;;;;5094329;28;20114;-74
2020/12/29 08:43:00;;;;;;;6.47;2.28;;;3.90;92.90;;;;;;5094236;28;20044;-74
2020/12/29 08:45:27;;;;;;;4.93;2.40;;;3.90;92.90;;;;;;5075510;28;20043;-74
2020/12/29 08:47:56;;;;;;;5.45;2.75;;;3.80;92.90;;;;;;5093227;28;20100;-74
2020/12/29 08:50:23;;;;;;;5.45;2.78;;;3.80;92.90;;;;;;5094191;28;20047;-74
2020/12/29 08:52:53;;;;;;;5.95;2.60;;;3.70;92.90;;;;;;5075604;28;20032;-74
2020/12/29 08:55:28;;;;;;;5.00;2.50;;;3.70;93.00;;;;;;5093603;28;20044;-74
2020/12/29 08:57:56;;;;;;;5.60;2.60;;;3.70;93.00;;;;;;5094021;28;20040;-74
2020/12/29 09:00:22;;;;;;;3.38;1.90;;;3.60;93.00;;;;;;5093624;28;20066;-74
2020/12/29 09:02:47;;;;;;;4.07;1.92;;;3.70;93.10;;;;;;5093369;28;20097;-74
2020/12/29 09:05:20;;;;;;;4.93;2.40;;;3.70;93.10;;;;;;5093539;28;20036;-74
2020/12/29 09:07:46;;;;;;;3.50;1.88;;;3.70;93.10;;;;;;5093521;28;20063;-74
2020/12/29 09:10:12;;;;;;;3.80;1.98;;;3.70;93.10;;;;;;5093518;28;20032;-74
2020/12/29 09:12:37;;;;;;;3.67;1.77;;;3.70;93.00;;;;;;5093363;28;20068;-74
2020/12/29 09:15:07;;;;;;;4.18;1.92;;;3.70;93.10;;;;;;5075083;28;20054;-74
2020/12/29 09:17:36;;;;;;;4.35;2.15;;;3.70;93.10;;;;;;5074992;28;20039;-74
2020/12/29 09:20:19;;;;;;;4.90;2.47;;;3.70;93.00;;;;;;5093090;28;20044;-74
2020/12/29 09:23:08;;;;;;;4.55;2.00;;;3.60;93.00;;;;;;5075326;28;20047;-74
2020/12/29 09:25:36;;;;;;;4.40;2.20;;;3.70;93.00;;;;;;5077989;28;20332;-74
2020/12/29 09:28:17;;;;;;;6.70;3.30;;;3.70;93.00;;;;;;5093142;28;20036;-74
2020/12/29 09:30:56;;;;;;;5.82;3.17;;;3.80;93.10;;;;;;5093112;28;20032;-74
2020/12/29 09:33:22;;;;;;;5.70;2.83;;;3.70;93.00;;;;;;5093201;28;20064;-74
2020/12/29 09:35:49;;;;;;;5.53;2.70;;;3.80;93.00;;;;;;5093434;28;20078;-73
2020/12/29 09:38:15;;;;;;;5.40;2.80;;;3.70;93.00;;;;;;5093760;28;20040;-73
2020/12/29 09:40:41;;;;;;;5.10;2.50;;;3.80;93.00;;;;;;5093110;28;20120;-73
2020/12/29 09:43:07;;;;;;;5.07;2.55;;;3.70;93.00;;;;;;5093436;28;20047;-73
2020/12/29 09:45:33;;;;;;;6.72;3.25;;;3.80;93.00;;;;;;5092928;28;20074;-72
2020/12/29 09:47:58;;;;;;;6.50;3.13;;;3.70;92.90;;;;;;5075279;28;20092;-72
2020/12/29 09:50:24;;;;;;;6.13;2.95;;;3.80;93.00;;;;;;5092967;28;20174;-72
2020/12/29 09:52:50;;;;;;;6.18;3.15;;;3.80;93.00;;;;;;5093261;28;20052;-72
2020/12/29 09:55:15;;;;;;;5.40;2.85;;;3.70;92.90;;;;;;5092780;28;20398;-72
2020/12/29 09:57:41;;;;;;;5.10;2.40;;;3.80;92.90;;;;;;5093197;28;20040;-73
2020/12/29 10:00:07;;;;;;;5.55;2.70;;;3.80;93.00;;;;;;5091917;28;20040;-73
2020/12/29 10:02:34;;;;;;;5.43;2.25;;;3.80;93.00;;;;;;5092883;28;20033;-72
2020/12/29 10:04:59;;;;;;;5.40;2.63;;;3.80;92.90;;;;;;5075010;28;20035;-73
2020/12/29 10:07:25;;;;;;;4.57;2.38;;;3.80;92.90;;;;;;5073547;28;20036;-72
2020/12/29 10:09:51;;;;;;;4.28;2.00;;;3.90;92.90;;;;;;5092413;28;20115;-72
2020/12/29 10:12:17;;;;;;;5.80;2.80;;;3.90;92.90;;;;;;5055754;28;20140;-72
2020/12/29 10:14:43;;;;;;;4.35;2.13;;;3.90;92.90;;;;;;5075016;28;20082;-73
2020/12/29 10:17:09;;;;;;;4.00;2.10;;;4.00;92.90;;;;;;5039949;28;20037;-72
2020/12/29 10:19:35;;;;;;;4.30;2.00;;;4.00;92.90;;;;;;5058334;28;20036;-72
2020/12/29 10:22:01;;;;;;;4.07;1.95;;;4.00;92.90;;;;;;5092880;28;20044;-72
2020/12/29 10:24:30;;;;;;;3.17;1.70;;;4.00;92.90;;;;;;5041195;28;20088;-72
2020/12/29 10:26:57;;;;;;;2.15;1.38;;;4.10;92.90;;;;;;5057835;28;20515;-72
2020/12/29 10:29:23;;;;;;;3.28;1.77;;;4.10;92.90;;;;;;5092361;28;20036;-72
2020/12/29 10:31:49;;;;;;;3.78;1.85;;;4.10;92.80;;;;;;5092537;28;20066;-74
2020/12/29 10:34:16;;;;;;;3.53;1.90;;;4.10;92.90;;;;;;5092793;28;20134;-72
2020/12/29 10:36:43;;;;;;;4.40;2.03;;;4.10;92.90;;;;;;5092221;28;20037;-73
2020/12/29 10:39:10;;;;;;;4.07;1.95;;;4.00;92.90;;;;;;5072676;28;20044;-72
2020/12/29 10:41:37;;;;;;;3.90;1.88;;;4.10;92.90;;;;;;5092141;28;20047;-72
2020/12/29 10:44:06;;;;;;;4.72;1.88;;;4.20;92.90;;;;;;5091961;28;20055;-74
2020/12/29 10:46:32;;;;;;;4.40;2.03;;;4.10;92.90;;;;;;5092472;28;20040;-70
2020/12/29 10:48:58;;;;;;;4.43;1.98;;;4.10;92.90;;;;;;5073882;28;20127;-74
2020/12/29 10:51:26;;;;;;;4.32;2.20;;;4.10;92.90;;;;;;5092190;28;20028;-74
2020/12/29 10:53:53;;;;;;;3.28;1.63;;;4.20;92.90;;;;;;5074097;28;20131;-73
2020/12/29 10:56:19;;;;;;;3.53;1.92;;;4.20;92.90;;;;;;5092184;28;20048;-72
2020/12/29 10:58:46;;;;;;;4.28;2.17;;;4.20;93.10;;;;;;5091846;28;20051;-73
2020/12/29 11:01:14;;;;;;;3.92;2.13;;;4.20;92.80;;;;;;5092092;28;20089;-74
2020/12/29 11:03:39;;;;;;;4.38;2.05;;;4.20;92.90;;;;;;5074009;28;20474;-73
2020/12/29 11:06:16;;;;;;;4.40;2.30;;;4.20;92.90;;;;;;5092461;28;20035;-73
2020/12/29 11:08:43;;;;;;;5.15;2.28;;;4.30;92.90;;;;;;5091955;28;20502;-73
2020/12/29 11:11:08;;;;;;;4.18;2.10;;;4.30;92.90;;;;;;5092618;28;20048;-73
2020/12/29 11:13:34;;;;;;;4.72;2.10;;;4.30;92.80;;;;;;5095435;28;20048;-72
2020/12/29 11:16:00;;;;;;;4.32;1.92;;;4.40;92.80;;;;;;5077505;28;20040;-72
2020/12/29 11:18:26;;;;;;;2.53;1.30;;;4.40;92.80;;;;;;5095387;28;20550;-72
2020/12/29 11:20:53;;;;;;;2.65;1.52;;;4.40;92.80;;;;;;5095241;28;20075;-72
2020/12/29 11:23:19;;;;;;;2.25;1.17;;;4.40;92.80;;;;;;5095440;28;20402;-72
2020/12/29 11:25:45;;;;;;;3.13;1.52;;;4.60;92.80;;;;;;5095056;28;20036;-73
2020/12/29 11:28:11;;;;;;;2.15;1.20;;;4.50;92.80;;;;;;5095167;28;20050;-73
2020/12/29 11:30:36;;;;;;;1.85;1.10;;;4.50;92.80;;;;;;5095253;28;20028;-72
2020/12/29 11:33:02;;;;;;;2.25;1.35;;;4.50;92.90;;;;;;5095366;28;20036;-73
2020/12/29 11:35:28;;;;;;;2.40;1.30;;;4.60;92.80;;;;;;5094902;28;20048;-74
2020/12/29 11:37:54;;;;;;;2.20;1.30;;;4.60;92.80;;;;;;5095055;28;20089;-73
2020/12/29 11:40:20;;;;;;;2.65;1.52;;;4.70;92.80;;;;;;5095519;28;20040;-73
2020/12/29 11:42:45;;;;;;;2.55;1.42;;;4.70;92.80;;;;;;5095138;28;20071;-73
2020/12/29 11:45:11;;;;;;;3.35;1.50;;;4.70;92.80;;;;;;5094878;28;20043;-73
2020/12/29 11:47:37;;;;;;;3.65;1.80;;;4.70;92.80;;;;;;5094859;28;20131;-73
2020/12/29 11:50:04;;;;;;;4.53;1.95;;;4.80;92.70;;;;;;5094768;28;20040;-73
2020/12/29 11:52:29;;;;;;;4.15;1.83;;;4.80;92.70;;;;;;5077273;28;20044;-73
2020/12/29 11:54:55;;;;;;;3.40;1.70;;;4.80;92.70;;;;;;5094913;28;20132;-74
2020/12/29 11:57:21;;;;;;;3.45;1.65;;;4.90;92.70;;;;;;5075544;28;20036;-73
2020/12/29 11:59:46;;;;;;;5.10;2.10;;;4.80;92.60;;;;;;5094669;28;20496;-75
2020/12/29 12:02:12;;;;;;;3.60;1.80;;;4.90;92.70;;;;;;5094528;28;20389;-73
2020/12/29 12:04:38;;;;;;;3.28;1.58;;;4.90;92.70;;;;;;5094718;28;20402;-72
2020/12/29 12:07:10;;;;;;;3.38;1.63;;;4.90;92.70;;;;;;5094858;28;20390;-72
2020/12/29 12:09:37;;;;;;;3.63;2.00;;;5.00;92.70;;;;;;5094140;28;20042;-72
2020/12/29 12:12:03;;;;;;;6.68;2.67;;;5.00;92.70;;;;;;5094316;28;20047;-73
2020/12/29 12:14:29;;;;;;;4.35;2.33;;;5.20;92.70;;;;;;5094447;28;20055;-73
2020/12/29 12:16:55;;;;;;;8.35;3.70;;;5.10;92.60;;;;;;5094702;28;20066;-73
2020/12/29 12:19:20;;;;;;;6.82;3.58;;;5.20;92.60;;;;;;5094080;28;20043;-73
2020/12/29 12:21:46;;;;;;;9.43;4.53;;;5.20;92.50;;;;;;5074275;28;20082;-72
2020/12/29 12:24:12;;;;;;;10.35;6.05;;;5.20;92.50;;;;;;5093604;28;20036;-73
2020/12/29 12:26:37;;;;;;;10.60;6.00;;;5.10;92.40;;;;;;5074728;28;20394;-72
2020/12/29 12:29:03;;;;;;;10.90;5.55;;;5.10;92.50;;;;;;5094449;28;20040;-72
2020/12/29 12:31:29;;;;;;;9.30;5.18;;;5.10;92.50;;;;;;5094322;28;20036;-72
2020/12/29 12:33:54;;;;;;;9.23;4.97;;;5.00;92.50;;;;;;5094344;28;20137;-72
2020/12/29 12:36:20;;;;;;;8.30;4.80;;;5.10;92.50;;;;;;5074372;28;20041;-72
2020/12/29 12:38:46;;;;;;;8.98;4.95;;;5.00;92.50;;;;;;5094200;28;20040;-73
2020/12/29 12:41:12;;;;;;;8.20;4.32;;;5.10;92.50;;;;;;5075795;28;20044;-72
2020/12/29 12:43:38;;;;;;;8.13;3.85;;;5.00;92.50;;;;;;5093762;28;20047;-72
2020/12/29 12:46:06;;;;;;;9.30;4.45;;;5.00;92.50;;;;;;5093766;28;20047;-72
2020/12/29 12:48:32;;;;;;;7.07;3.97;;;5.10;92.60;;;;;;5093684;28;20040;-73
2020/12/29 12:50:57;;;;;;;8.45;4.05;;;5.10;92.60;;;;;;5075834;28;20168;-73
2020/12/29 12:53:23;;;;;;;7.65;3.92;;;5.10;92.60;;;;;;5093679;28;20064;-72
2020/12/29 12:55:49;;;;;;;6.32;3.72;;;5.10;92.50;;;;;;5094066;28;20144;-73
2020/12/29 12:58:15;;;;;;;6.25;3.88;;;5.10;92.50;;;;;;5075025;28;20048;-73